createdAt,value
2017-04-04T11:33:47.071Z,430
2017-04-04T11:38:47.031Z,430
2017-04-04T11:43:46.957Z,435
2017-04-04T11:48:46.946Z,420
2017-04-04T11:53:46.565Z,380
2017-04-04T11:58:46.841Z,400
2017-04-04T12:03:46.534Z,405
2017-04-04T12:08:46.450Z,390
2017-04-04T16:41:42.710Z,100
2017-04-04T16:46:42.655Z,95
2017-04-04T16:51:42.292Z,90
2017-04-04T16:56:42.546Z,90
2017-04-04T17:01:42.151Z,80
2017-04-04T17:06:42.091Z,75
2017-04-04T17:11:42.350Z,70
2017-04-04T17:16:42.528Z,65
2017-04-04T17:21:41.979Z,55
2017-04-04T17:26:42.156Z,50
2017-04-04T17:31:42.093Z,45
2017-04-04T17:36:42.034Z,40
2017-04-04T17:41:41.970Z,35
2017-04-04T17:46:42.030Z,30
2017-04-04T17:51:41.938Z,25
2017-04-04T17:56:41.790Z,20
2017-04-04T18:01:41.757Z,15
2017-04-04T18:06:41.752Z,10
2017-04-04T18:11:41.731Z,5
2017-04-04T18:16:41.672Z,5
2017-04-04T18:21:41.662Z,0
2017-04-04T18:26:41.338Z,0
2017-04-04T18:31:41.624Z,0
2017-04-04T18:36:41.594Z,0
2017-04-04T18:41:41.610Z,0
2017-04-04T18:46:41.553Z,0
2017-04-04T18:51:41.616Z,0
2017-04-04T18:56:41.168Z,0
2017-04-04T19:01:41.462Z,0
2017-04-04T19:06:41.390Z,0
2017-04-04T19:11:41.092Z,0
2017-04-04T19:16:41.362Z,0
2017-04-04T19:21:41.318Z,0
2017-04-04T19:26:41.311Z,0
2017-04-04T19:31:41.287Z,0
2017-04-04T19:36:41.303Z,0
2017-04-04T19:41:41.260Z,0
2017-04-04T19:46:40.925Z,0
2017-04-04T19:51:41.198Z,0
2017-04-04T19:56:40.557Z,0
2017-04-04T20:01:41.207Z,0
2017-04-04T20:06:41.110Z,0
2017-04-04T20:11:41.161Z,0
2017-04-04T20:16:41.079Z,0
2017-04-04T20:21:41.163Z,0
2017-04-04T20:26:41.040Z,0
2017-04-04T20:31:41.021Z,0
2017-04-04T20:36:40.393Z,0
2017-04-04T20:41:40.673Z,0
2017-04-04T20:46:40.643Z,0
